Fenwick, Michigan
Current Conditions -  °F | °C
As of 5:34 AM on Thursday 18 Dec 2014 (Local Time) from KY70 Reporting Station
Overcast Overcast  
Wind Chill: 24°   Ceiling: 1500
Heat Index: 31°   Visibility: 10mi
Dew Point: 26°   Wind: 7mph
Humidity: 84%   Direction: 280°W
Pressure: 30.17"   Gusts: NA
Location:  43.15°N, 85.08°W
Report Text: KY70 181034Z AUTO 28006KT 10SM OVC015 M01/M03 A3017 RMK AO2 T10081032
Loading
Personal Weather Stations






























Interactive Weather Map New forecast layout! Learn more

10-Day Weather Forecast

Advertisements
Track Severe Weather on mobile